Time;durP1;ratioP1;P1;durP2;ratioP2;P2;SDS_P1;SDS_P2;PMS_P1;PMS_P2;Temp;Humidity;BMP_temperature;BMP_pressure;BME280_temperature;BME280_humidity;BME280_pressure;Samples;Min_cycle;Max_cycle;Signal;HPM_P1;HPM_P2
2022/06/29 00:02:23;;;;;;;6.28;4.05;;;;;;;24.92;53.83;95277.16;5040673;28;20020;-54
2022/06/29 00:04:49;;;;;;;5.80;3.85;;;;;;;24.91;53.66;95281.13;5044135;28;20296;-52
2022/06/29 00:07:14;;;;;;;5.47;3.95;;;;;;;24.87;53.81;95286.16;5042682;28;20025;-53
2022/06/29 00:09:40;;;;;;;7.40;4.00;;;;;;;24.87;53.94;95283.44;5042253;28;20033;-51
2022/06/29 00:12:06;;;;;;;5.55;4.00;;;;;;;24.83;54.32;95279.50;5042211;28;20032;-51
2022/06/29 00:14:31;;;;;;;7.68;4.13;;;;;;;24.84;54.15;95281.72;5042791;28;20009;-53
2022/06/29 00:16:56;;;;;;;6.95;4.03;;;;;;;24.85;54.14;95283.19;5041555;28;20033;-52
2022/06/29 00:19:22;;;;;;;5.40;3.90;;;;;;;24.82;53.76;95278.75;5041388;28;20036;-54
2022/06/29 00:21:47;;;;;;;6.13;4.38;;;;;;;24.84;53.94;95276.25;5040941;28;20021;-52
2022/06/29 00:24:13;;;;;;;5.50;3.78;;;;;;;24.83;53.76;95280.25;5042544;28;20488;-52
2022/06/29 00:26:39;;;;;;;5.65;3.80;;;;;;;24.82;53.87;95289.69;5044460;28;20447;-52
2022/06/29 00:29:04;;;;;;;6.00;3.95;;;;;;;24.82;53.75;95284.22;5040998;28;20518;-53
2022/06/29 00:31:30;;;;;;;6.65;4.05;;;;;;;24.79;53.78;95278.31;5036226;28;20029;-52
2022/06/29 00:33:55;;;;;;;7.65;4.03;;;;;;;24.78;53.77;95282.28;5026214;28;20032;-53
2022/06/29 00:36:20;;;;;;;6.70;3.72;;;;;;;24.75;54.02;95275.84;5042702;28;20021;-52
2022/06/29 00:38:46;;;;;;;5.53;3.80;;;;;;;24.73;53.98;95270.16;5042331;28;20777;-53
2022/06/29 00:41:12;;;;;;;6.90;3.78;;;;;;;24.72;53.73;95273.41;5042428;28;20352;-53
2022/06/29 00:43:41;;;;;;;5.05;3.58;;;;;;;24.74;54.05;95265.44;5041331;28;20041;-54
2022/06/29 00:46:06;;;;;;;4.72;3.80;;;;;;;24.64;54.07;95261.56;5032978;28;20190;-52
2022/06/29 00:48:32;;;;;;;5.63;3.70;;;;;;;24.69;53.59;95260.78;5041141;28;20091;-52
2022/06/29 00:50:58;;;;;;;4.85;3.50;;;;;;;24.65;53.62;95268.50;5041402;28;20025;-52
2022/06/29 00:53:24;;;;;;;4.95;3.60;;;;;;;24.66;53.59;95259.06;5022557;28;20030;-52
2022/06/29 00:55:49;;;;;;;4.03;3.40;;;;;;;24.67;53.43;95266.00;5024544;28;20079;-53
2022/06/29 00:58:15;;;;;;;5.53;4.57;;;;;;;24.63;53.41;95260.09;5016840;28;20029;-53
2022/06/29 01:00:41;;;;;;;4.60;3.90;;;;;;;24.64;53.83;95264.31;5041185;28;20033;-54
2022/06/29 01:03:07;;;;;;;5.28;3.95;;;;;;;24.61;53.68;95248.94;5041181;28;20582;-52
2022/06/29 01:05:33;;;;;;;4.07;3.50;;;;;;;24.59;53.69;95259.66;5044223;28;20562;-53
2022/06/29 01:07:58;;;;;;;5.90;4.40;;;;;;;24.58;53.77;95258.16;5042260;28;20029;-51
2022/06/29 01:10:24;;;;;;;7.40;4.03;;;;;;;24.56;53.53;95255.22;5032403;28;20025;-52
2022/06/29 01:12:52;;;;;;;7.07;4.45;;;;;;;24.59;53.69;95259.66;5041644;28;20043;-52
2022/06/29 01:15:18;;;;;;;9.65;4.10;;;;;;;24.55;53.90;95248.25;5040482;28;20103;-53
2022/06/29 01:17:44;;;;;;;6.28;4.03;;;;;;;24.55;53.60;95251.00;5033611;28;20725;-53
2022/06/29 01:20:10;;;;;;;6.93;3.80;;;;;;;24.55;53.49;95242.78;5041041;28;20025;-52
2022/06/29 01:22:36;;;;;;;6.10;4.30;;;;;;;24.52;53.71;95243.81;5041890;28;20025;-52
2022/06/29 01:25:01;;;;;;;5.18;3.72;;;;;;;24.52;53.77;95235.63;5042196;28;20120;-54
2022/06/29 01:27:27;;;;;;;5.30;3.30;;;;;;;24.54;53.45;95241.31;5042033;28;20017;-53
2022/06/29 01:29:52;;;;;;;6.45;3.90;;;;;;;24.52;53.46;95232.91;5041997;28;20021;-53
2022/06/29 01:32:19;;;;;;;5.72;3.55;;;;;;;24.51;53.44;95236.88;5021449;28;20061;-53
2022/06/29 01:34:44;;;;;;;5.82;4.05;;;;;;;24.51;53.40;95247.78;5042124;28;20123;-52
2022/06/29 01:37:10;;;;;;;4.38;3.55;;;;;;;24.49;53.71;95251.03;5034842;28;20028;-54
2022/06/29 01:39:35;;;;;;;5.30;3.53;;;;;;;24.49;53.27;95250.31;5016034;28;20478;-52
2022/06/29 01:42:01;;;;;;;4.72;3.50;;;;;;;24.48;53.49;95248.81;5014780;28;20029;-52
2022/06/29 01:44:27;;;;;;;5.32;3.35;;;;;;;24.47;53.32;95252.81;5040307;28;20033;-54
2022/06/29 01:46:52;;;;;;;5.95;3.38;;;;;;;24.44;53.80;95253.81;5039599;28;20032;-53
2022/06/29 01:49:18;;;;;;;5.15;3.30;;;;;;;24.46;53.60;95243.13;5035119;28;20429;-52
2022/06/29 01:51:43;;;;;;;5.60;3.47;;;;;;;24.44;53.66;95248.38;5038641;28;20058;-52
2022/06/29 01:54:09;;;;;;;5.78;3.88;;;;;;;24.44;53.77;95242.91;5029597;28;20024;-51
2022/06/29 01:56:34;;;;;;;4.57;3.70;;;;;;;24.43;53.43;95241.41;5034258;28;20043;-54
2022/06/29 01:59:00;;;;;;;5.88;3.50;;;;;;;24.41;53.75;95238.47;5038286;28;20021;-52
2022/06/29 02:01:25;;;;;;;4.63;3.70;;;;;;;24.41;53.62;95236.47;5038701;28;20074;-50
2022/06/29 02:03:51;;;;;;;4.82;3.53;;;;;;;24.42;53.20;95234.47;5021959;28;20029;-51
2022/06/29 02:06:17;;;;;;;8.15;3.95;;;;;;;24.37;53.30;95232.53;5037878;28;20029;-51
2022/06/29 02:08:44;;;;;;;5.75;3.38;;;;;;;24.39;53.54;95230.03;5038596;28;20021;-51
2022/06/29 02:11:09;;;;;;;5.50;3.85;;;;;;;24.39;53.40;95227.31;5031711;28;20037;-51
2022/06/29 02:13:35;;;;;;;4.82;3.53;;;;;;;24.37;53.40;95232.53;5033322;28;20525;-52
2022/06/29 02:16:00;;;;;;;5.03;3.50;;;;;;;24.34;53.46;95221.91;5038683;28;20514;-52
2022/06/29 02:18:26;;;;;;;5.43;3.20;;;;;;;24.36;53.24;95220.13;5040810;28;20820;-52
2022/06/29 02:20:51;;;;;;;9.15;3.50;;;;;;;24.31;53.20;95223.63;5041604;28;20036;-53
2022/06/29 02:23:17;;;;;;;5.05;3.40;;;;;;;24.33;53.60;95221.16;5029398;28;20377;-51
2022/06/29 02:25:42;;;;;;;7.00;3.33;;;;;;;24.30;53.46;95216.69;5036941;28;20025;-53
2022/06/29 02:28:07;;;;;;;5.38;3.38;;;;;;;24.27;53.41;95212.25;5038247;28;20056;-51
2022/06/29 02:36:01;;;;;;;4.40;3.80;;;;;;;24.24;53.62;95216.00;5038722;28;20416;-52
2022/06/29 02:38:26;;;;;;;6.63;3.35;;;;;;;24.23;53.59;95211.81;5039422;28;20519;-53
2022/06/29 02:40:52;;;;;;;5.28;4.00;;;;;;;24.22;53.66;95204.84;5042068;28;20032;-52
2022/06/29 02:43:17;;;;;;;6.05;3.67;;;;;;;24.22;53.50;95210.31;5038385;28;20470;-54
2022/06/29 02:45:43;;;;;;;6.85;3.47;;;;;;;24.22;53.46;95188.47;5027101;28;20017;-52
2022/06/29 02:48:08;;;;;;;5.05;3.33;;;;;;;24.20;53.27;95199.19;5045025;28;20037;-51
2022/06/29 02:50:34;;;;;;;5.22;3.50;;;;;;;24.20;53.33;95196.44;5041888;28;20488;-51
2022/06/29 02:52:59;;;;;;;6.20;3.53;;;;;;;24.21;53.47;95197.91;5044713;28;20087;-53
2022/06/29 02:55:25;;;;;;;4.53;3.45;;;;;;;24.19;53.65;95199.69;5045135;28;20510;-52
2022/06/29 02:57:50;;;;;;;5.35;3.33;;;;;;;24.19;53.49;95205.88;5043080;28;20059;-52
2022/06/29 03:00:16;;;;;;;5.38;3.70;;;;;;;24.16;53.25;95201.44;5038411;28;20035;-52
2022/06/29 03:02:41;;;;;;;5.88;3.90;;;;;;;24.15;53.18;95199.94;5033062;28;20041;-52
2022/06/29 03:05:07;;;;;;;7.32;4.18;;;;;;;24.14;53.42;95193.03;5043165;28;20033;-52
2022/06/29 03:07:33;;;;;;;6.57;3.53;;;;;;;24.17;53.60;95197.47;5043930;28;20044;-54
2022/06/29 03:09:58;;;;;;;7.20;4.03;;;;;;;24.14;53.61;95193.03;5037432;28;20029;-53
2022/06/29 03:12:24;;;;;;;6.13;3.70;;;;;;;24.17;53.53;95197.47;5042445;28;20503;-53
2022/06/29 03:14:49;;;;;;;4.53;3.70;;;;;;;24.13;53.63;95199.72;5038588;28;20043;-51
2022/06/29 03:17:14;;;;;;;5.82;3.70;;;;;;;24.15;53.74;95199.94;5041058;28;20052;-53
2022/06/29 03:19:40;;;;;;;4.80;3.65;;;;;;;24.13;53.83;95202.47;5046766;28;20033;-52
2022/06/29 03:22:06;;;;;;;5.45;3.90;;;;;;;24.12;53.82;95203.69;5032677;28;20040;-52
2022/06/29 03:24:31;;;;;;;5.88;4.20;;;;;;;24.15;53.53;95197.22;5032929;28;20017;-52
2022/06/29 03:26:56;;;;;;;5.93;3.97;;;;;;;24.14;53.81;95201.22;5034738;28;20029;-53
2022/06/29 03:29:22;;;;;;;5.20;3.70;;;;;;;24.12;53.97;95200.25;5030743;28;20040;-53
2022/06/29 03:31:47;;;;;;;9.55;5.22;;;;;;;24.12;53.95;95200.97;5029433;28;20053;-51
2022/06/29 03:34:13;;;;;;;8.75;5.78;;;;;;;24.12;53.91;95195.50;5036189;28;20811;-51
2022/06/29 03:36:38;;;;;;;18.45;14.57;;;;;;;24.13;54.10;95197.00;5032341;28;20052;-51
2022/06/29 03:39:04;;;;;;;59.22;49.47;;;;;;;24.16;54.03;95206.91;5028520;28;20025;-53
2022/06/29 03:41:30;;;;;;;11.75;7.10;;;;;;;24.14;54.16;95201.22;5029560;28;20079;-52
2022/06/29 03:43:56;;;;;;;72.63;49.53;;;;;;;24.15;54.05;95210.88;5013491;28;20104;-53
2022/06/29 03:46:21;;;;;;;82.20;52.95;;;;;;;24.16;54.04;95206.91;5028586;28;20026;-52
2022/06/29 03:48:46;;;;;;;20.73;12.68;;;;;;;24.15;54.22;95204.69;5029770;28;20500;-52
2022/06/29 03:51:12;;;;;;;16.08;12.52;;;;;;;24.15;54.51;95199.94;5032246;28;20167;-52
2022/06/29 03:53:37;;;;;;;21.95;13.30;;;;;;;24.15;54.53;95199.94;5012540;28;20026;-53
2022/06/29 03:56:03;;;;;;;62.08;50.63;;;;;;;24.16;54.61;95190.53;5025225;28;20491;-53
2022/06/29 03:58:28;;;;;;;171.40;108.75;;;;;;;24.16;54.79;95190.53;5029167;28;20499;-53
2022/06/29 04:00:54;;;;;;;9.27;5.30;;;;;;;24.15;54.92;95194.50;5027150;28;20563;-52
2022/06/29 04:03:19;;;;;;;10.18;4.82;;;;;;;24.19;54.83;95194.22;5033362;28;20024;-51
2022/06/29 04:05:45;;;;;;;6.35;4.25;;;;;;;24.18;55.34;95179.81;5037318;28;20025;-52
2022/06/29 04:08:10;;;;;;;6.65;4.20;;;;;;;24.19;55.50;95181.31;5029226;28;20169;-52
2022/06/29 04:10:36;;;;;;;6.32;4.75;;;;;;;24.19;55.73;95181.31;5026025;28;20029;-52
2022/06/29 04:13:02;;;;;;;6.72;4.63;;;;;;;24.23;55.69;95176.31;5024732;28;20025;-53
2022/06/29 04:15:27;;;;;;;8.75;5.15;;;;;;;24.21;55.76;95181.53;5011777;28;20017;-52
2022/06/29 04:17:52;;;;;;;7.32;4.85;;;;;;;24.27;55.67;95179.50;5026077;28;20091;-53
2022/06/29 04:23:09;;;;;;;19.52;12.95;;;;;;;24.21;56.09;95170.63;5002604;28;20049;-52
2022/06/29 04:25:35;;;;;;;10.13;6.88;;;;;;;24.29;56.02;95166.09;5016782;28;20044;-51
2022/06/29 04:28:00;;;;;;;7.95;6.15;;;;;;;24.29;56.02;95163.38;5025121;28;20040;-52
2022/06/29 04:30:26;;;;;;;22.65;16.80;;;;;;;24.38;55.51;95173.97;5039001;28;20040;-52
2022/06/29 04:32:52;;;;;;;34.55;21.38;;;;;;;24.49;55.41;95182.03;5038100;28;20053;-52
2022/06/29 04:35:17;;;;;;;8.00;5.32;;;;;;;24.58;55.51;95176.25;5030234;28;20029;-53
2022/06/29 04:37:42;;;;;;;9.43;6.90;;;;;;;24.62;55.64;95168.47;5027129;28;20414;-52
2022/06/29 04:40:09;;;;;;;72.88;60.10;;;;;;;24.69;55.65;95170.66;5024590;28;20029;-52
2022/06/29 04:42:34;;;;;;;401.17;257.48;;;;;;;24.76;55.69;95167.34;5026015;28;20026;-52
2022/06/29 04:44:59;;;;;;;266.42;151.27;;;;;;;24.90;55.51;95162.19;5026532;28;20401;-52
2022/06/29 04:47:25;;;;;;;13.23;6.70;;;;;;;25.01;54.97;95169.56;5032415;28;20146;-53
2022/06/29 04:49:50;;;;;;;11.38;6.38;;;;;;;25.10;54.57;95167.19;5024498;28;20027;-52
2022/06/29 04:52:16;;;;;;;43.63;25.15;;;;;;;25.16;54.33;95176.06;5024777;28;20032;-53
2022/06/29 04:54:41;;;;;;;9.43;6.38;;;;;;;25.28;53.93;95177.38;5026264;28;20579;-51
2022/06/29 04:57:08;;;;;;;6.50;5.47;;;;;;;25.28;53.62;95182.84;5025853;28;20028;-52
2022/06/29 04:59:33;;;;;;;11.30;6.13;;;;;;;25.45;53.16;95180.63;5025625;28;20036;-53
2022/06/29 05:01:59;;;;;;;14.60;11.32;;;;;;;25.48;53.28;95185.03;5032113;28;20825;-53
2022/06/29 05:04:24;;;;;;;13.35;5.72;;;;;;;25.59;52.63;95191.09;5027038;28;20033;-52
2022/06/29 05:06:50;;;;;;;9.73;5.95;;;;;;;25.72;52.59;95193.19;5023931;28;20100;-52
2022/06/29 05:09:15;;;;;;;12.35;6.38;;;;;;;25.78;52.40;95199.31;5033586;28;20053;-51
2022/06/29 05:11:41;;;;;;;8.63;5.55;;;;;;;25.93;52.16;95181.16;5025637;28;20547;-53
2022/06/29 05:14:07;;;;;;;31.38;23.00;;;;;;;26.01;51.66;95188.25;5033704;28;20059;-52
2022/06/29 05:16:32;;;;;;;29.88;22.00;;;;;;;26.14;51.32;95185.50;5027442;28;20068;-52
2022/06/29 05:18:58;;;;;;;22.65;11.80;;;;;;;26.22;51.90;95191.88;5007513;28;20124;-52
2022/06/29 05:21:23;;;;;;;13.00;6.80;;;;;;;26.36;51.47;95196.13;5031489;28;20036;-52
2022/06/29 05:23:49;;;;;;;10.07;6.80;;;;;;;26.35;51.51;95187.19;5024407;28;20381;-51
2022/06/29 05:26:15;;;;;;;10.52;6.50;;;;;;;26.40;51.83;95185.63;5028842;28;20051;-51
2022/06/29 05:28:40;;;;;;;10.45;6.72;;;;;;;26.59;51.72;95186.25;5024379;28;20543;-52
2022/06/29 05:31:05;;;;;;;9.45;6.10;;;;;;;26.71;51.94;95182.78;5023448;28;20060;-52
2022/06/29 05:33:36;;;;;;;8.80;6.60;;;;;;;26.77;53.20;95188.91;5023294;28;20049;-53
2022/06/29 05:36:06;;;;;;;13.20;6.88;;;;;;;26.91;52.26;95182.91;4992414;28;20664;-52
2022/06/29 05:38:32;;;;;;;14.40;6.93;;;;;;;26.99;52.43;95175.50;5012106;28;20025;-54
2022/06/29 05:40:57;;;;;;;14.48;8.07;;;;;;;26.88;51.75;95186.66;5032862;28;20037;-53
2022/06/29 05:43:23;;;;;;;10.95;7.00;;;;;;;26.87;51.46;95190.66;5028464;28;20028;-53
2022/06/29 05:45:48;;;;;;;10.80;6.85;;;;;;;26.96;51.48;95192.28;5007994;28;20049;-53
2022/06/29 05:48:14;;;;;;;10.07;7.32;;;;;;;26.99;50.69;95191.94;5023447;28;20025;-53
2022/06/29 05:50:39;;;;;;;11.95;7.07;;;;;;;27.00;49.84;95190.69;5039227;28;20040;-52
2022/06/29 05:53:05;;;;;;;10.63;6.57;;;;;;;27.11;50.15;95195.22;5029356;28;20083;-53
2022/06/29 05:55:30;;;;;;;10.25;6.47;;;;;;;27.26;49.40;95193.38;5026380;28;20079;-52
2022/06/29 05:57:55;;;;;;;11.10;7.45;;;;;;;27.41;49.50;95210.03;5037508;28;20029;-52
2022/06/29 06:00:21;;;;;;;11.98;7.30;;;;;;;27.53;48.45;95205.81;5026588;28;20025;-53
2022/06/29 06:02:46;;;;;;;12.32;7.13;;;;;;;27.42;48.36;95217.00;5041127;28;20036;-52
2022/06/29 06:05:12;;;;;;;10.63;6.05;;;;;;;27.42;48.90;95214.25;5038094;28;20480;-53
2022/06/29 06:07:37;;;;;;;11.07;6.18;;;;;;;27.49;48.79;95205.38;5028372;28;20025;-52
2022/06/29 06:10:03;;;;;;;11.05;6.85;;;;;;;27.57;48.62;95209.69;5034108;28;20024;-54
2022/06/29 06:12:30;;;;;;;12.80;6.55;;;;;;;27.79;47.66;95207.19;5029427;28;21600;-52
2022/06/29 06:14:58;;;;;;;12.57;5.90;;;;;;;27.82;47.73;95210.91;5013573;28;20423;-56
2022/06/29 06:17:26;;;;;;;10.32;6.57;;;;;;;27.80;48.26;95205.94;5028077;28;20029;-52
2022/06/29 06:19:52;;;;;;;9.48;6.22;;;;;;;27.84;47.62;95209.06;5008744;28;20151;-51
2022/06/29 06:22:18;;;;;;;9.30;6.80;;;;;;;27.83;47.89;95207.63;5029394;28;20029;-52
2022/06/29 06:24:43;;;;;;;10.23;5.90;;;;;;;27.82;47.90;95206.13;5032025;28;20087;-52
2022/06/29 06:27:09;;;;;;;9.20;5.20;;;;;;;27.91;47.76;95188.47;5029001;28;20021;-52
2022/06/29 06:29:34;;;;;;;11.20;5.53;;;;;;;28.03;47.25;95192.44;5031958;28;20512;-51
2022/06/29 06:32:01;;;;;;;6.40;4.78;;;;;;;28.07;47.50;95193.56;5026769;28;20049;-52
2022/06/29 06:34:27;;;;;;;10.93;5.15;;;;;;;28.26;47.02;95183.13;5031337;28;20525;-52
2022/06/29 06:36:52;;;;;;;11.60;5.57;;;;;;;28.34;46.67;95183.91;5035843;28;20020;-51
2022/06/29 06:39:18;;;;;;;8.38;5.00;;;;;;;28.49;46.53;95184.03;5022508;28;20030;-52
2022/06/29 06:41:43;;;;;;;8.15;5.15;;;;;;;28.48;46.54;95182.56;5026575;28;20029;-52
2022/06/29 06:44:09;;;;;;;7.10;5.22;;;;;;;28.59;46.33;95188.50;5038795;28;20034;-51
2022/06/29 06:46:35;;;;;;;7.65;4.72;;;;;;;28.72;46.50;95179.47;5018558;28;20033;-52
2022/06/29 06:49:00;;;;;;;9.23;4.60;;;;;;;28.71;46.37;95183.47;5030307;28;20028;-51
2022/06/29 06:51:26;;;;;;;7.07;4.82;;;;;;;28.73;45.56;95193.41;5030376;28;20044;-53
2022/06/29 06:53:52;;;;;;;7.25;4.75;;;;;;;28.78;45.50;95189.75;5025517;28;20440;-51
2022/06/29 06:56:17;;;;;;;8.07;4.72;;;;;;;28.77;45.80;95180.06;5028343;28;20025;-51
2022/06/29 06:58:43;;;;;;;6.90;5.00;;;;;;;28.89;45.70;95172.97;5025963;28;20029;-52
2022/06/29 07:01:09;;;;;;;5.90;4.40;;;;;;;28.92;45.56;95166.41;5027800;28;20040;-51
2022/06/29 07:03:37;;;;;;;6.28;4.72;;;;;;;28.96;45.63;95172.25;5026950;28;20237;-53
2022/06/29 07:06:07;;;;;;;6.53;4.20;;;;;;;29.01;45.73;95168.59;5032810;28;20040;-52
2022/06/29 07:08:33;;;;;;;6.88;4.60;;;;;;;29.09;45.13;95174.16;5029069;28;20112;-52
2022/06/29 07:10:59;;;;;;;9.43;4.63;;;;;;;29.10;45.49;95175.63;5042059;28;20029;-54
2022/06/29 07:13:25;;;;;;;6.13;4.30;;;;;;;29.22;45.10;95172.00;5036611;28;20096;-54
2022/06/29 07:15:51;;;;;;;7.32;4.65;;;;;;;29.09;45.14;95177.66;5012926;28;20049;-53
2022/06/29 07:18:16;;;;;;;7.32;4.38;;;;;;;29.25;45.28;95170.94;5032909;28;20033;-53
2022/06/29 07:20:42;;;;;;;9.98;4.45;;;;;;;29.27;45.22;95169.13;5040376;28;20025;-52
2022/06/29 07:23:07;;;;;;;5.50;4.40;;;;;;;29.31;44.90;95168.78;5040893;28;20017;-53
2022/06/29 07:25:33;;;;;;;15.88;9.45;;;;;;;29.09;44.75;95172.16;5043737;28;20037;-52
2022/06/29 07:27:58;;;;;;;9.90;7.20;;;;;;;29.05;44.84;95163.50;5033164;28;20522;-51
2022/06/29 07:30:24;;;;;;;10.57;5.80;;;;;;;29.17;44.50;95170.16;5030520;28;20029;-52
2022/06/29 07:32:49;;;;;;;10.57;6.55;;;;;;;29.18;44.53;95166.13;5031430;28;20726;-52
2022/06/29 07:35:15;;;;;;;9.52;5.70;;;;;;;29.09;44.12;95169.41;5029655;28;20040;-52
2022/06/29 07:37:40;;;;;;;8.93;5.63;;;;;;;28.98;44.55;95166.94;5024576;28;20033;-51
2022/06/29 07:40:06;;;;;;;10.82;5.60;;;;;;;29.04;43.79;95161.28;5024373;28;20025;-51
2022/06/29 07:42:33;;;;;;;8.88;5.78;;;;;;;29.11;43.63;95155.09;5026384;28;20020;-52
2022/06/29 07:44:59;;;;;;;9.00;5.75;;;;;;;29.17;44.16;95154.38;5026858;28;20052;-52
2022/06/29 07:47:24;;;;;;;8.20;5.45;;;;;;;29.23;43.56;95154.22;5027466;28;20052;-52
2022/06/29 07:49:50;;;;;;;8.38;5.30;;;;;;;29.16;43.81;95145.94;5024927;28;20441;-52
2022/06/29 07:52:15;;;;;;;9.18;5.50;;;;;;;29.24;43.84;95147.50;5031604;28;20696;-51
2022/06/29 07:54:40;;;;;;;8.80;5.10;;;;;;;28.98;44.68;95158.69;5027829;28;20030;-53
2022/06/29 07:57:06;;;;;;;9.30;4.78;;;;;;;29.20;44.21;95164.28;5032465;28;20012;-52
2022/06/29 07:59:31;;;;;;;10.00;5.07;;;;;;;29.20;43.78;95147.06;5033895;28;20507;-51
2022/06/29 08:01:57;;;;;;;9.40;5.55;;;;;;;29.09;44.52;95152.13;5026759;28;20029;-53
2022/06/29 08:04:22;;;;;;;7.10;5.25;;;;;;;29.04;44.50;95151.03;5027613;28;20029;-51
2022/06/29 08:06:48;;;;;;;7.47;5.07;;;;;;;29.25;44.05;95154.44;5026762;28;20033;-51
2022/06/29 08:09:13;;;;;;;8.70;5.10;;;;;;;29.43;43.90;95147.91;5026281;28;20084;-52
2022/06/29 08:11:39;;;;;;;8.10;5.35;;;;;;;29.41;43.75;95153.22;5026283;28;20021;-51
2022/06/29 08:14:04;;;;;;;7.95;5.50;;;;;;;29.57;42.89;95141.72;5028031;28;20021;-52
2022/06/29 08:16:30;;;;;;;10.07;5.88;;;;;;;29.50;43.23;95147.19;5024417;28;20029;-54
2022/06/29 08:18:55;;;;;;;10.18;5.50;;;;;;;29.50;42.84;95147.19;5026142;28;20496;-52
2022/06/29 08:21:21;;;;;;;10.50;5.03;;;;;;;29.48;43.13;95147.00;5027279;28;20033;-52
2022/06/29 08:23:47;;;;;;;8.27;5.03;;;;;;;29.54;43.27;95153.09;5028469;28;20034;-51
2022/06/29 08:26:13;;;;;;;8.20;5.50;;;;;;;29.47;43.15;95148.28;5025875;28;20037;-52
2022/06/29 08:28:38;;;;;;;11.25;6.22;;;;;;;29.58;42.79;95153.44;5027303;28;20025;-53
2022/06/29 08:31:04;;;;;;;9.73;5.60;;;;;;;29.79;41.88;95163.81;5026311;28;20519;-52
2022/06/29 08:33:29;;;;;;;10.43;5.20;;;;;;;29.66;42.63;95151.47;5024994;28;20034;-52
2022/06/29 08:35:55;;;;;;;8.68;5.20;;;;;;;29.70;42.41;95150.53;5029151;28;20029;-52
2022/06/29 08:38:20;;;;;;;9.95;5.38;;;;;;;29.72;42.47;95147.97;5024707;28;20057;-51
2022/06/29 08:40:47;;;;;;;13.15;7.15;;;;;;;29.79;42.46;95136.28;5014569;28;20055;-51
2022/06/29 08:43:14;;;;;;;11.43;10.23;;;;;;;29.73;43.03;95138.44;5027155;28;20480;-51
2022/06/29 08:45:47;;;;;;;13.82;10.80;;;;;;;29.84;42.96;95142.88;5028500;28;20039;-52
2022/06/29 08:48:12;;;;;;;21.67;19.38;;;;;;;29.88;41.99;95144.00;5027436;28;20021;-52
2022/06/29 08:50:39;;;;;;;23.13;19.27;;;;;;;29.80;42.28;95146.00;5028036;28;20091;-53
2022/06/29 08:53:05;;;;;;;24.60;22.00;;;;;;;29.85;41.95;95150.59;5007799;28;21298;-52
2022/06/29 08:55:31;;;;;;;9.63;6.18;;;;;;;29.85;42.40;95156.13;5010055;28;20060;-53
2022/06/29 08:57:56;;;;;;;10.93;5.40;;;;;;;29.98;41.98;95146.94;5024420;28;20025;-52
2022/06/29 09:00:24;;;;;;;15.48;13.77;;;;;;;30.13;40.92;95155.94;5002209;28;20025;-53
2022/06/29 09:02:49;;;;;;;14.90;13.10;;;;;;;30.04;40.79;95148.22;5020880;28;20029;-54
2022/06/29 09:05:15;;;;;;;10.85;9.43;;;;;;;30.01;41.33;95146.56;5019541;28;20036;-53
2022/06/29 09:07:40;;;;;;;8.07;6.03;;;;;;;29.97;41.90;95143.47;5031350;28;20070;-52
2022/06/29 09:10:12;;;;;;;8.65;5.75;;;;;;;30.04;41.96;95150.97;5033258;28;20529;-52
2022/06/29 09:12:37;;;;;;;9.82;6.40;;;;;;;29.95;42.43;95137.75;5037653;28;20032;-52
2022/06/29 09:15:05;;;;;;;9.90;5.95;;;;;;;30.10;42.22;95137.75;5023789;28;20709;-54
2022/06/29 09:17:31;;;;;;;14.98;9.15;;;;;;;30.14;41.22;95135.38;5013123;28;20128;-54
2022/06/29 09:19:57;;;;;;;15.05;8.85;;;;;;;30.08;41.57;95126.56;5031790;28;20033;-51
2022/06/29 09:22:22;;;;;;;13.00;11.38;;;;;;;30.11;41.92;95128.22;5024237;28;20377;-52
2022/06/29 09:24:48;;;;;;;13.60;11.50;;;;;;;30.12;42.08;95126.94;5029598;28;20053;-52
2022/06/29 09:27:13;;;;;;;13.05;10.00;;;;;;;30.03;42.22;95130.25;5030467;28;20090;-51
2022/06/29 09:29:41;;;;;;;18.42;16.48;;;;;;;30.13;42.07;95125.63;5034716;28;20045;-51
2022/06/29 09:32:11;;;;;;;11.82;8.52;;;;;;;30.18;42.35;95127.50;5041135;28;20036;-53
2022/06/29 09:34:57;;;;;;;12.68;7.80;;;;;;;30.15;42.00;95128.59;5036972;28;20036;-51
2022/06/29 09:37:23;;;;;;;11.38;8.02;;;;;;;30.26;42.08;95125.44;5035914;28;20029;-52
2022/06/29 09:39:50;;;;;;;10.48;7.38;;;;;;;30.34;41.72;95135.22;5041074;28;20075;-51
2022/06/29 09:42:17;;;;;;;17.00;13.73;;;;;;;30.42;41.74;95129.69;5023248;28;20040;-53
2022/06/29 09:44:42;;;;;;;11.15;8.23;;;;;;;30.38;41.75;95124.53;5037235;28;20408;-52
2022/06/29 09:47:11;;;;;;;13.48;8.70;;;;;;;30.46;41.88;95119.03;5029471;28;20025;-52
2022/06/29 09:49:37;;;;;;;9.77;5.27;;;;;;;30.30;41.83;95123.06;5039764;28;20029;-54
2022/06/29 09:52:03;;;;;;;13.82;11.30;;;;;;;30.36;41.91;95113.34;5040821;28;20035;-52
2022/06/29 09:54:36;;;;;;;12.05;10.75;;;;;;;30.47;41.37;95120.50;5028641;28;20072;-51
2022/06/29 09:57:02;;;;;;;18.75;17.05;;;;;;;30.36;41.60;95115.38;5025212;28;20029;-51
2022/06/29 10:05:28;;;;;;;21.50;19.45;;;;;;;30.47;41.26;95112.94;4977064;28;20880;-52
2022/06/29 10:07:54;;;;;;;15.02;13.70;;;;;;;30.54;41.08;95109.47;5016186;28;20041;-52
2022/06/29 10:10:23;;;;;;;33.17;30.08;;;;;;;30.56;41.07;95111.66;5041927;28;20024;-51
2022/06/29 10:16:02;;;;;;;27.02;24.35;;;;;;;30.61;40.75;95107.97;5030896;28;19939;-53
2022/06/29 10:18:49;;;;;;;18.65;16.92;;;;;;;30.57;40.97;95113.09;5034248;28;20038;-53
2022/06/29 10:21:23;;;;;;;13.20;9.30;;;;;;;30.62;40.53;95101.16;5033280;28;20658;-53
2022/06/29 10:23:49;;;;;;;11.73;9.57;;;;;;;30.63;40.98;95106.13;5012039;28;20195;-52
2022/06/29 10:26:36;;;;;;;27.52;24.92;;;;;;;30.68;39.89;95103.16;5026820;28;20036;-53
2022/06/29 10:29:22;;;;;;;22.63;20.42;;;;;;;30.61;40.11;95091.41;5032398;28;20025;-53
2022/06/29 10:31:54;;;;;;;18.30;16.50;;;;;;;30.56;40.42;95100.63;5025202;28;20501;-53
2022/06/29 10:34:32;;;;;;;24.15;21.77;;;;;;;30.61;39.89;95097.66;5033038;28;20040;-53
2022/06/29 10:37:11;;;;;;;17.40;15.90;;;;;;;30.65;38.61;95093.25;5039471;28;20433;-54
2022/06/29 10:39:49;;;;;;;57.75;41.13;;;;;;;30.72;38.51;95092.50;5041168;28;20053;-54
2022/06/29 10:45:24;;;;;;;27.15;24.35;;;;;;;30.63;38.97;95084.06;5027615;28;20052;-53
2022/06/29 10:47:53;;;;;;;27.15;24.40;;;;;;;30.66;38.84;95082.97;5024112;28;20068;-53
2022/06/29 10:50:20;;;;;;;16.42;14.50;;;;;;;30.71;38.37;95076.50;5024922;28;20695;-53
2022/06/29 10:52:46;;;;;;;20.50;18.33;;;;;;;30.77;38.21;95080.53;5028267;28;20032;-53
2022/06/29 10:55:12;;;;;;;27.20;24.30;;;;;;;30.78;38.55;95082.00;5011258;28;20680;-52
2022/06/29 10:57:39;;;;;;;23.90;19.10;;;;;;;30.86;38.20;95079.94;5012717;28;20029;-53
2022/06/29 11:00:10;;;;;;;11.18;7.32;;;;;;;30.91;37.93;95086.56;5026906;28;20442;-53
2022/06/29 11:02:36;;;;;;;10.00;8.52;;;;;;;30.95;38.13;95082.13;5028370;28;20059;-53
2022/06/29 11:05:01;;;;;;;20.00;17.80;;;;;;;30.84;38.18;95077.00;5031999;28;20107;-53
2022/06/29 11:12:56;;;;;;;14.45;12.55;;;;;;;30.92;37.75;95077.72;5019269;28;20036;-53
2022/06/29 11:15:41;;;;;;;21.92;19.73;;;;;;;30.92;37.08;95074.97;5032953;28;20025;-53
2022/06/29 11:18:08;;;;;;;61.70;44.15;;;;;;;30.95;36.15;95062.81;5039559;28;20758;-53
2022/06/29 11:20:34;;;;;;;574.65;368.55;;;;;;;30.95;35.82;95062.81;5043330;28;20037;-53
2022/06/29 11:22:59;;;;;;;89.55;52.53;;;;;;;30.93;35.51;95062.66;5037040;28;20021;-53
2022/06/29 11:25:26;;;;;;;252.02;125.97;;;;;;;30.94;35.57;95055.84;5038260;28;20021;-53
2022/06/29 11:27:51;;;;;;;246.13;120.75;;;;;;;31.05;35.56;95057.47;5033312;28;20044;-53
2022/06/29 11:30:22;;;;;;;189.50;93.35;;;;;;;30.95;35.73;95046.28;5026488;28;20021;-53
2022/06/29 11:32:48;;;;;;;290.25;159.73;;;;;;;31.06;35.73;95054.16;5043434;28;20325;-53
2022/06/29 11:35:15;;;;;;;348.33;189.32;;;;;;;31.00;35.52;95050.88;5044803;28;20017;-53
2022/06/29 11:38:01;;;;;;;340.27;175.30;;;;;;;31.06;35.50;95037.59;5026320;28;20036;-53
2022/06/29 11:40:42;;;;;;;261.67;132.05;;;;;;;31.04;35.17;95033.91;5026992;28;20033;-53
2022/06/29 11:43:15;;;;;;;100.30;64.88;;;;;;;31.05;34.99;95030.59;5016296;28;20033;-53
2022/06/29 11:45:43;;;;;;;105.22;61.70;;;;;;;31.07;35.21;95039.03;5010237;28;20543;-54
2022/06/29 11:48:13;;;;;;;266.40;140.32;;;;;;;31.12;33.86;95040.88;5031420;28;20021;-53
2022/06/29 11:50:54;;;;;;;153.95;93.50;;;;;;;31.14;34.09;95032.75;5045732;28;20020;-53